sensor_id;sensor_type;location;lat;lon;timestamp;pressure;altitude;pressure_sealevel;temperature;humidity
72294;BME280;60632;49.236;8.398;2023-05-02T12:09:13;101170.97;;;22.90;44.72
72294;BME280;60632;49.236;8.398;2023-05-02T12:12:22;101164.66;;;23.27;44.36
72294;BME280;60632;49.236;8.398;2023-05-02T12:15:22;101168.66;;;23.54;44.06
72294;BME280;60632;49.236;8.398;2023-05-02T12:18:23;101173.91;;;23.74;43.99
72294;BME280;60632;49.236;8.398;2023-05-02T12:21:24;101170.38;;;23.88;43.87
72294;BME280;60632;49.236;8.398;2023-05-02T12:24:26;101175.41;;;23.99;43.91
72294;BME280;60632;49.236;8.398;2023-05-02T12:27:26;101174.38;;;24.09;43.88
72294;BME280;60632;49.236;8.398;2023-05-02T12:30:27;101177.28;;;24.18;43.61
72294;BME280;60632;49.236;8.398;2023-05-02T12:33:27;101169.38;;;24.25;43.58
72294;BME280;60632;49.236;8.398;2023-05-02T12:36:28;101182.00;;;24.31;43.55
72294;BME280;60632;49.236;8.398;2023-05-02T12:39:38;101174.13;;;24.38;43.50
72294;BME280;60632;49.236;8.398;2023-05-02T12:42:39;101171.00;;;24.45;43.46
72294;BME280;60632;49.236;8.398;2023-05-02T12:45:40;101167.28;;;24.50;43.46
72294;BME280;60632;49.236;8.398;2023-05-02T12:48:40;101154.16;;;24.55;43.43
72294;BME280;60632;49.236;8.398;2023-05-02T12:51:41;101158.75;;;24.60;43.37
72294;BME280;60632;49.236;8.398;2023-05-02T12:54:51;101153.41;;;24.63;43.44
72294;BME280;60632;49.236;8.398;2023-05-02T12:58:13;101155.78;;;24.70;43.57
72294;BME280;60632;49.236;8.398;2023-05-02T13:01:13;101167.91;;;24.74;43.32
72294;BME280;60632;49.236;8.398;2023-05-02T13:04:14;101162.56;;;24.78;43.44
72294;BME280;60632;49.236;8.398;2023-05-02T13:07:14;101162.75;;;24.81;43.35
72294;BME280;60632;49.236;8.398;2023-05-02T13:10:14;101161.00;;;24.85;43.40
72294;BME280;60632;49.236;8.398;2023-05-02T13:13:17;101156.78;;;24.88;43.36
72294;BME280;60632;49.236;8.398;2023-05-02T13:16:17;101159.22;;;24.89;43.30
72294;BME280;60632;49.236;8.398;2023-05-02T13:19:18;101160.28;;;24.94;43.35
72294;BME280;60632;49.236;8.398;2023-05-02T13:22:18;101157.19;;;24.95;43.25
72294;BME280;60632;49.236;8.398;2023-05-02T13:25:18;101164.06;;;24.98;43.23
72294;BME280;60632;49.236;8.398;2023-05-02T13:28:19;101147.91;;;25.00;43.24
72294;BME280;60632;49.236;8.398;2023-05-02T13:31:19;101152.03;;;25.02;43.17
72294;BME280;60632;49.236;8.398;2023-05-02T13:34:19;101152.84;;;25.03;43.11
72294;BME280;60632;49.236;8.398;2023-05-02T13:37:20;101154.50;;;25.04;43.23
72294;BME280;60632;49.236;8.398;2023-05-02T13:40:20;101154.16;;;25.05;43.13
72294;BME280;60632;49.236;8.398;2023-05-02T13:43:21;101164.13;;;25.06;42.94
72294;BME280;60632;49.236;8.398;2023-05-02T13:46:21;101161.06;;;25.08;43.06
72294;BME280;60632;49.236;8.398;2023-05-02T13:49:21;101159.09;;;25.08;43.19
72294;BME280;60632;49.236;8.398;2023-05-02T13:52:22;101164.34;;;25.10;43.11
72294;BME280;60632;49.236;8.398;2023-05-02T13:55:22;101162.09;;;25.12;43.02
72294;BME280;60632;49.236;8.398;2023-05-02T13:58:22;101163.75;;;25.13;42.91
72294;BME280;60632;49.236;8.398;2023-05-02T14:01:22;101151.53;;;25.14;43.22
72294;BME280;60632;49.236;8.398;2023-05-02T14:04:25;101164.56;;;25.13;43.02
72294;BME280;60632;49.236;8.398;2023-05-02T14:07:25;101154.78;;;25.16;43.26
72294;BME280;60632;49.236;8.398;2023-05-02T14:10:26;101154.47;;;25.18;43.00
72294;BME280;60632;49.236;8.398;2023-05-02T14:13:26;101158.06;;;25.18;43.11
72294;BME280;60632;49.236;8.398;2023-05-02T14:16:26;101159.69;;;25.19;43.01
72294;BME280;60632;49.236;8.398;2023-05-02T14:19:27;101149.94;;;25.22;43.01
72294;BME280;60632;49.236;8.398;2023-05-02T14:22:27;101151.91;;;25.21;42.86
72294;BME280;60632;49.236;8.398;2023-05-02T14:25:28;101161.03;;;25.22;42.90
72294;BME280;60632;49.236;8.398;2023-05-02T14:28:28;101161.84;;;25.22;43.02
72294;BME280;60632;49.236;8.398;2023-05-02T14:31:28;101152.41;;;25.23;43.11
72294;BME280;60632;49.236;8.398;2023-05-02T14:34:29;101163.50;;;25.23;43.08
72294;BME280;60632;49.236;8.398;2023-05-02T14:37:29;101154.06;;;25.24;42.90
72294;BME280;60632;49.236;8.398;2023-05-02T14:40:29;101149.31;;;25.25;42.90
72294;BME280;60632;49.236;8.398;2023-05-02T14:43:30;101146.06;;;25.23;42.72
72294;BME280;60632;49.236;8.398;2023-05-02T14:46:31;101148.50;;;25.24;42.92
72294;BME280;60632;49.236;8.398;2023-05-02T14:49:31;101142.94;;;25.24;42.83
72294;BME280;60632;49.236;8.398;2023-05-02T14:52:31;101150.94;;;25.26;42.92
72294;BME280;60632;49.236;8.398;2023-05-02T14:55:35;101151.78;;;25.26;42.83
72294;BME280;60632;49.236;8.398;2023-05-02T14:58:37;101146.25;;;25.26;42.92
72294;BME280;60632;49.236;8.398;2023-05-02T15:01:38;101157.34;;;25.26;43.06
72294;BME280;60632;49.236;8.398;2023-05-02T15:04:38;101145.09;;;25.27;42.99
72294;BME280;60632;49.236;8.398;2023-05-02T15:07:38;101152.28;;;25.28;43.03
72294;BME280;60632;49.236;8.398;2023-05-02T15:10:39;101145.63;;;25.29;43.03
72294;BME280;60632;49.236;8.398;2023-05-02T15:13:39;101151.97;;;25.30;42.83
72294;BME280;60632;49.236;8.398;2023-05-02T15:16:39;101151.66;;;25.31;42.90
72294;BME280;60632;49.236;8.398;2023-05-02T15:19:40;101158.34;;;25.30;43.11
72294;BME280;60632;49.236;8.398;2023-05-02T15:22:40;101151.16;;;25.29;42.61
72294;BME280;60632;49.236;8.398;2023-05-02T15:25:41;101160.78;;;25.32;42.91
72294;BME280;60632;49.236;8.398;2023-05-02T15:28:41;101167.19;;;25.32;42.77
72294;BME280;60632;49.236;8.398;2023-05-02T15:31:41;101161.63;;;25.32;42.71
72294;BME280;60632;49.236;8.398;2023-05-02T15:34:42;101164.91;;;25.34;42.78
72294;BME280;60632;49.236;8.398;2023-05-02T15:37:42;101164.91;;;25.34;42.80
72294;BME280;60632;49.236;8.398;2023-05-02T15:40:42;101165.72;;;25.35;42.87
72294;BME280;60632;49.236;8.398;2023-05-02T15:43:43;101166.56;;;25.35;42.71
72294;BME280;60632;49.236;8.398;2023-05-02T15:46:43;101167.69;;;25.34;42.76
72294;BME280;60632;49.236;8.398;2023-05-02T15:49:45;101174.88;;;25.35;42.76
72294;BME280;60632;49.236;8.398;2023-05-02T15:52:46;101168.19;;;25.36;42.90
72294;BME280;60632;49.236;8.398;2023-05-02T15:55:46;101170.63;;;25.38;42.79
72294;BME280;60632;49.236;8.398;2023-05-02T15:58:47;101170.63;;;25.38;42.69
72294;BME280;60632;49.236;8.398;2023-05-02T16:01:47;101170.63;;;25.38;42.68
72294;BME280;60632;49.236;8.398;2023-05-02T16:04:48;101171.44;;;25.38;42.69
72294;BME280;60632;49.236;8.398;2023-05-02T16:07:48;101175.38;;;25.37;42.52
72294;BME280;60632;49.236;8.398;2023-05-02T16:10:49;101184.84;;;25.36;42.68
72294;BME280;60632;49.236;8.398;2023-05-02T16:13:50;101172.75;;;25.32;42.75
72294;BME280;60632;49.236;8.398;2023-05-02T16:16:51;101175.81;;;25.31;42.76
72294;BME280;60632;49.236;8.398;2023-05-02T16:19:51;101178.91;;;25.29;42.55
72294;BME280;60632;49.236;8.398;2023-05-02T16:22:52;101171.69;;;25.28;42.69
72294;BME280;60632;49.236;8.398;2023-05-02T16:25:56;101175.09;;;25.25;42.62
72294;BME280;60632;49.236;8.398;2023-05-02T16:28:56;101177.38;;;25.23;42.47
72294;BME280;60632;49.236;8.398;2023-05-02T16:31:56;101179.63;;;25.21;42.69
72294;BME280;60632;49.236;8.398;2023-05-02T16:34:58;101179.97;;;25.20;42.56
72294;BME280;60632;49.236;8.398;2023-05-02T16:37:58;101178.31;;;25.19;42.59
72294;BME280;60632;49.236;8.398;2023-05-02T16:41:01;101184.19;;;25.17;42.68
72294;BME280;60632;49.236;8.398;2023-05-02T16:44:01;101182.50;;;25.16;42.37
72294;BME280;60632;49.236;8.398;2023-05-02T16:47:02;101180.41;;;25.13;42.28
72294;BME280;60632;49.236;8.398;2023-05-02T16:50:02;101183.19;;;25.13;42.52
72294;BME280;60632;49.236;8.398;2023-05-02T16:53:03;101189.84;;;25.12;42.32
72294;BME280;60632;49.236;8.398;2023-05-02T16:56:03;101189.84;;;25.12;42.35
72294;BME280;60632;49.236;8.398;2023-05-02T16:59:05;101193.72;;;25.11;42.33
72294;BME280;60632;49.236;8.398;2023-05-02T17:02:05;101182.63;;;25.11;42.43
72294;BME280;60632;49.236;8.398;2023-05-02T17:05:05;101186.53;;;25.10;42.48
72294;BME280;60632;49.236;8.398;2023-05-02T17:08:06;101185.69;;;25.09;42.27
72294;BME280;60632;49.236;8.398;2023-05-02T17:11:06;101194.34;;;25.08;42.43
72294;BME280;60632;49.236;8.398;2023-05-02T17:14:07;101193.81;;;25.06;42.20
72294;BME280;60632;49.236;8.398;2023-05-02T17:17:08;101192.69;;;25.07;42.22
72294;BME280;60632;49.236;8.398;2023-05-02T17:20:08;101195.78;;;25.05;42.18
72294;BME280;60632;49.236;8.398;2023-05-02T17:23:10;101190.22;;;25.05;42.14
72294;BME280;60632;49.236;8.398;2023-05-02T17:26:10;101197.72;;;25.05;42.21
72294;BME280;60632;49.236;8.398;2023-05-02T17:29:14;101194.97;;;25.05;42.27
72294;BME280;60632;49.236;8.398;2023-05-02T17:32:15;101203.59;;;25.03;42.13
72294;BME280;60632;49.236;8.398;2023-05-02T17:35:15;101202.75;;;25.03;42.09
72294;BME280;60632;49.236;8.398;2023-05-02T17:38:16;101201.75;;;24.99;41.97
72294;BME280;60632;49.236;8.398;2023-05-02T17:41:16;101210.59;;;25.01;42.21
72294;BME280;60632;49.236;8.398;2023-05-02T17:44:17;101211.41;;;25.01;42.20
72294;BME280;60632;49.236;8.398;2023-05-02T17:47:17;101210.59;;;25.01;41.91
72294;BME280;60632;49.236;8.398;2023-05-02T17:50:18;101212.03;;;24.98;42.09
72294;BME280;60632;49.236;8.398;2023-05-02T17:53:19;101212.31;;;24.97;41.83
72294;BME280;60632;49.236;8.398;2023-05-02T17:56:19;101220.44;;;24.93;42.07
72294;BME280;60632;49.236;8.398;2023-05-02T17:59:20;101230.72;;;24.92;41.92
72294;BME280;60632;49.236;8.398;2023-05-02T18:02:21;101233.47;;;24.92;41.93
72294;BME280;60632;49.236;8.398;2023-05-02T18:05:22;101225.97;;;24.93;41.88
72294;BME280;60632;49.236;8.398;2023-05-02T18:08:22;101236.25;;;24.92;41.93
72294;BME280;60632;49.236;8.398;2023-05-02T18:11:22;101243.47;;;24.94;41.88
72294;BME280;60632;49.236;8.398;2023-05-02T18:14:25;101235.16;;;24.94;42.00
72294;BME280;60632;49.236;8.398;2023-05-02T18:17:25;101243.47;;;24.94;42.04
72294;BME280;60632;49.236;8.398;2023-05-02T18:20:27;101243.47;;;24.94;41.93
72294;BME280;60632;49.236;8.398;2023-05-02T18:23:27;101253.41;;;24.95;42.07
72294;BME280;60632;49.236;8.398;2023-05-02T18:26:28;101258.44;;;24.92;41.86
72294;BME280;60632;49.236;8.398;2023-05-02T18:29:28;101266.47;;;24.94;41.86
72294;BME280;60632;49.236;8.398;2023-05-02T18:32:28;101272.81;;;24.95;42.05
72294;BME280;60632;49.236;8.398;2023-05-02T18:35:30;101267.28;;;24.95;41.95
72294;BME280;60632;49.236;8.398;2023-05-02T18:38:31;101273.31;;;24.97;41.79
72294;BME280;60632;49.236;8.398;2023-05-02T18:41:32;101276.94;;;24.97;41.85
72294;BME280;60632;49.236;8.398;2023-05-02T18:44:33;101277.75;;;24.98;41.85
72294;BME280;60632;49.236;8.398;2023-05-02T18:47:33;101287.72;;;24.99;41.93
72294;BME280;60632;49.236;8.398;2023-05-02T18:50:35;101284.94;;;24.99;41.91
72294;BME280;60632;49.236;8.398;2023-05-02T18:53:36;101293.78;;;25.01;41.87
72294;BME280;60632;49.236;8.398;2023-05-02T18:56:36;101304.56;;;25.02;41.87
72294;BME280;60632;49.236;8.398;2023-05-02T18:59:36;101301.50;;;25.04;41.91
72294;BME280;60632;49.236;8.398;2023-05-02T19:02:37;101308.66;;;25.05;41.85
72294;BME280;60632;49.236;8.398;2023-05-02T19:05:38;101318.63;;;25.06;41.92
72294;BME280;60632;49.236;8.398;2023-05-02T19:08:38;101323.06;;;25.07;41.83
72294;BME280;60632;49.236;8.398;2023-05-02T19:11:39;101321.09;;;25.07;41.88
72294;BME280;60632;49.236;8.398;2023-05-02T19:14:40;101333.00;;;25.08;41.68
72294;BME280;60632;49.236;8.398;2023-05-02T19:17:41;101330.78;;;25.10;41.59
72294;BME280;60632;49.236;8.398;2023-05-02T19:20:43;101338.75;;;25.11;41.84
72294;BME280;60632;49.236;8.398;2023-05-02T19:23:43;101341.28;;;25.13;41.94
72294;BME280;60632;49.236;8.398;2023-05-02T19:26:44;101342.91;;;25.14;41.85
72294;BME280;60632;49.236;8.398;2023-05-02T19:29:44;101351.72;;;25.16;41.86
72294;BME280;60632;49.236;8.398;2023-05-02T19:32:44;101352.25;;;25.18;41.84
72294;BME280;60632;49.236;8.398;2023-05-02T19:35:45;101364.16;;;25.19;41.67
72294;BME280;60632;49.236;8.398;2023-05-02T19:38:47;101369.41;;;25.20;41.62
72294;BME280;60632;49.236;8.398;2023-05-02T19:41:48;101363.56;;;25.22;41.73
72294;BME280;60632;49.236;8.398;2023-05-02T19:44:49;101373.53;;;25.23;41.42
72294;BME280;60632;49.236;8.398;2023-05-02T19:47:49;101385.13;;;25.25;41.54
72294;BME280;60632;49.236;8.398;2023-05-02T19:50:49;101388.72;;;25.25;41.71
72294;BME280;60632;49.236;8.398;2023-05-02T19:53:50;101394.59;;;25.24;41.58
72294;BME280;60632;49.236;8.398;2023-05-02T19:56:52;101390.38;;;25.26;41.63
72294;BME280;60632;49.236;8.398;2023-05-02T19:59:52;101409.50;;;25.28;41.75
72294;BME280;60632;49.236;8.398;2023-05-02T20:02:52;101406.72;;;25.28;41.63
72294;BME280;60632;49.236;8.398;2023-05-02T20:05:53;101409.19;;;25.29;41.67
72294;BME280;60632;49.236;8.398;2023-05-02T20:08:54;101411.13;;;25.29;41.73
72294;BME280;60632;49.236;8.398;2023-05-02T20:11:54;101411.97;;;25.29;41.66
72294;BME280;60632;49.236;8.398;2023-05-02T20:14:55;101410.31;;;25.28;41.59
72294;BME280;60632;49.236;8.398;2023-05-02T20:17:55;101415.84;;;25.28;41.45
72294;BME280;60632;49.236;8.398;2023-05-02T20:20:57;101417.00;;;25.27;41.38
72294;BME280;60632;49.236;8.398;2023-05-02T20:23:57;101423.06;;;25.29;41.58
72294;BME280;60632;49.236;8.398;2023-05-02T20:26:57;101429.72;;;25.28;41.48
72294;BME280;60632;49.236;8.398;2023-05-02T20:29:58;101429.72;;;25.28;41.53
72294;BME280;60632;49.236;8.398;2023-05-02T20:32:58;101443.59;;;25.28;41.45
72294;BME280;60632;49.236;8.398;2023-05-02T20:35:58;101440.81;;;25.28;41.31
72294;BME280;60632;49.236;8.398;2023-05-02T20:38:59;101436.41;;;25.27;41.47
72294;BME280;60632;49.236;8.398;2023-05-02T20:41:59;101442.78;;;25.28;41.38
72294;BME280;60632;49.236;8.398;2023-05-02T20:45:00;101450.28;;;25.27;41.64
72294;BME280;60632;49.236;8.398;2023-05-02T20:48:01;101446.38;;;25.28;41.56
72294;BME280;60632;49.236;8.398;2023-05-02T20:51:02;101448.66;;;25.26;41.34
72294;BME280;60632;49.236;8.398;2023-05-02T20:54:02;101453.06;;;25.27;41.59
72294;BME280;60632;49.236;8.398;2023-05-02T20:57:02;101460.25;;;25.28;41.53
72294;BME280;60632;49.236;8.398;2023-05-02T21:00:03;101440.31;;;25.26;41.31
72294;BME280;60632;49.236;8.398;2023-05-02T21:03:04;101447.50;;;25.27;41.44
72294;BME280;60632;49.236;8.398;2023-05-02T21:06:04;101453.06;;;25.27;41.49
72294;BME280;60632;49.236;8.398;2023-05-02T21:09:04;101458.09;;;25.25;41.29
72294;BME280;60632;49.236;8.398;2023-05-02T21:12:08;101452.53;;;25.25;41.32
72294;BME280;60632;49.236;8.398;2023-05-02T21:15:08;101451.44;;;25.26;41.38
72294;BME280;60632;49.236;8.398;2023-05-02T21:18:09;101461.69;;;25.26;41.50
72294;BME280;60632;49.236;8.398;2023-05-02T21:21:09;101454.50;;;25.25;41.57
72294;BME280;60632;49.236;8.398;2023-05-02T21:24:10;101460.84;;;25.25;41.54
72294;BME280;60632;49.236;8.398;2023-05-02T21:27:10;101460.03;;;25.25;41.43
72294;BME280;60632;49.236;8.398;2023-05-02T21:30:10;101460.84;;;25.25;41.49
72294;BME280;60632;49.236;8.398;2023-05-02T21:33:11;101459.22;;;25.24;41.27
72294;BME280;60632;49.236;8.398;2023-05-02T21:36:12;101466.41;;;25.25;41.54
72294;BME280;60632;49.236;8.398;2023-05-02T21:39:12;101460.84;;;25.25;41.27
72294;BME280;60632;49.236;8.398;2023-05-02T21:42:14;101462.81;;;25.25;41.14
72294;BME280;60632;49.236;8.398;2023-05-02T21:45:14;101469.19;;;25.25;41.29
72294;BME280;60632;49.236;8.398;2023-05-02T21:48:15;101466.41;;;25.25;41.38
72294;BME280;60632;49.236;8.398;2023-05-02T21:51:15;101466.41;;;25.25;41.54
72294;BME280;60632;49.236;8.398;2023-05-02T21:54:16;101473.09;;;25.24;41.38
72294;BME280;60632;49.236;8.398;2023-05-02T21:57:16;101467.53;;;25.24;41.37
72294;BME280;60632;49.236;8.398;2023-05-02T22:00:18;101464.78;;;25.24;41.37
72294;BME280;60632;49.236;8.398;2023-05-02T22:03:18;101465.91;;;25.23;41.17
72294;BME280;60632;49.236;8.398;2023-05-02T22:06:18;101464.78;;;25.24;41.20
72294;BME280;60632;49.236;8.398;2023-05-02T22:09:18;101458.41;;;25.24;41.25
72294;BME280;60632;49.236;8.398;2023-05-02T22:12:19;101463.13;;;25.23;41.19
72294;BME280;60632;49.236;8.398;2023-05-02T22:15:20;101465.91;;;25.23;41.23
72294;BME280;60632;49.236;8.398;2023-05-02T22:18:20;101464.78;;;25.24;41.37
72294;BME280;60632;49.236;8.398;2023-05-02T22:21:20;101468.69;;;25.23;41.05
72294;BME280;60632;49.236;8.398;2023-05-02T22:24:21;101464.78;;;25.24;41.19
72294;BME280;60632;49.236;8.398;2023-05-02T22:27:21;101463.94;;;25.24;41.04
72294;BME280;60632;49.236;8.398;2023-05-02T22:30:22;101479.78;;;25.23;41.13
72294;BME280;60632;49.236;8.398;2023-05-02T22:33:22;101475.88;;;25.24;41.40
72294;BME280;60632;49.236;8.398;2023-05-02T22:36:23;101471.47;;;25.23;41.07
72294;BME280;60632;49.236;8.398;2023-05-02T22:39:23;101465.91;;;25.23;40.88
72294;BME280;60632;49.236;8.398;2023-05-02T22:42:24;101471.47;;;25.23;41.27
72294;BME280;60632;49.236;8.398;2023-05-02T22:45:24;101478.13;;;25.22;41.25
72294;BME280;60632;49.236;8.398;2023-05-02T22:48:26;101478.13;;;25.22;41.31
72294;BME280;60632;49.236;8.398;2023-05-02T22:51:26;101487.56;;;25.21;41.22
72294;BME280;60632;49.236;8.398;2023-05-02T22:54:27;101487.56;;;25.21;41.10
72294;BME280;60632;49.236;8.398;2023-05-02T22:57:27;101488.41;;;25.22;40.99
72294;BME280;60632;49.236;8.398;2023-05-02T23:00:27;101493.94;;;25.22;41.10
72294;BME280;60632;49.236;8.398;2023-05-02T23:03:28;101497.53;;;25.22;41.09
72294;BME280;60632;49.236;8.398;2023-05-02T23:06:28;101497.03;;;25.20;41.04
72294;BME280;60632;49.236;8.398;2023-05-02T23:09:28;101502.59;;;25.20;41.25
72294;BME280;60632;49.236;8.398;2023-05-02T23:12:28;101500.91;;;25.19;41.08
72294;BME280;60632;49.236;8.398;2023-05-02T23:15:29;101495.38;;;25.19;40.97
72294;BME280;60632;49.236;8.398;2023-05-02T23:18:29;101500.91;;;25.19;40.96
72294;BME280;60632;49.236;8.398;2023-05-02T23:21:29;101499.00;;;25.20;40.91
72294;BME280;60632;49.236;8.398;2023-05-02T23:24:30;101488.19;;;25.18;41.16
72294;BME280;60632;49.236;8.398;2023-05-02T23:27:30;101493.72;;;25.18;41.11
72294;BME280;60632;49.236;8.398;2023-05-02T23:30:31;101492.91;;;25.18;40.97
72294;BME280;60632;49.236;8.398;2023-05-02T23:33:31;101486.56;;;25.17;41.13
72294;BME280;60632;49.236;8.398;2023-05-02T23:36:32;101486.56;;;25.17;40.92
72294;BME280;60632;49.236;8.398;2023-05-02T23:39:33;101492.09;;;25.17;40.93
72294;BME280;60632;49.236;8.398;2023-05-02T23:42:33;101492.09;;;25.17;40.88
72294;BME280;60632;49.236;8.398;2023-05-02T23:45:34;101486.56;;;25.17;40.93
72294;BME280;60632;49.236;8.398;2023-05-02T23:48:35;101492.09;;;25.17;40.96
72294;BME280;60632;49.236;8.398;2023-05-02T23:51:35;101490.44;;;25.16;40.61
72294;BME280;60632;49.236;8.398;2023-05-02T23:54:36;101495.97;;;25.16;40.86
72294;BME280;60632;49.236;8.398;2023-05-02T23:57:37;101495.97;;;25.16;40.91
